Historique des mesures à Cassis (13260), France
Quotidien Résumé Fevrier 11, 2017 Unités:  Métrique    US   Métrique/US
« Précédent (Jour)
Suivant (Jour) »
Quotidien Hebdomadaire Mensuel Annuel Période au choix
  Maximum: Minimum: Moyenne:
Température: TemperatureC °C 9.0 °C 10.6 °C
Point de rosée: DewpointC °C 4.6 °C 5.5 °C
Humidité: Humidity % 63 % 67 %
Vitesse du vent: 0 km/h 0 km/h 5.6 km/h
Rafales: 0 km/h - -
Vent:- - SSE
Pression: PressurehPa hPa 1014.8 hPa -
Précipitations: 0.0 mm    
Historical Graphs
 
 
Mesures pour : Fevrier 11, 2017
Heure Temperature Point de rosée Pression Vent Vitesse du vent Rafales Humidité Pluie (par heure) Conditions
TemperatureC °C DewpointC °C PressurehPa hPa Calm     Humidity % HourlyPrecipMM mm SoftwareType W/m2
00:11 9.4 °C 4.6 °C 1016.8 hPa Calm   2.3 km/h 72 % 0.0 mm open2300-1.11 W/m2
01:10 9.6 °C 5.0 °C 1016.5 hPa Calm   6.4 km/h 73 % 0.0 mm open2300-1.11 W/m2
02:11 9.0 °C 4.6 °C 1016.1 hPa Calm   2.9 km/h 74 % 0.0 mm open2300-1.11 W/m2
03:10 9.2 °C 4.6 °C 1016.5 hPa NW 11.6 km/h 11.6 km/h 73 % 0.0 mm open2300-1.11 W/m2
04:11 9.4 °C 4.8 °C 1016.5 hPa NNW 8 km/h 8 km/h 73 % 0.0 mm open2300-1.11 W/m2
05:10 9.4 °C 4.8 °C 1016.1 hPa Calm   2.9 km/h 73 % 0.0 mm open2300-1.11 W/m2
06:11 9.7 °C 5.4 °C 1016.5 hPa Calm     75 % 0.0 mm open2300-1.11 W/m2
07:10 9.9 °C 5.8 °C 1016.1 hPa ENE 1.8 km/h 4.7 km/h 76 % 0.0 mm open2300-1.11 W/m2
08:11 10.1 °C 5.8 °C 1016.5 hPa SE 11.6 km/h 11.6 km/h 75 % 0.0 mm open2300-1.11 W/m2
09:10 10.6 °C 6.3 °C 1016.8 hPa Calm   15 km/h 75 % 0.0 mm open2300-1.11 W/m2
10:11 11.4 °C 6.3 °C 1016.5 hPa South 10.3 km/h 17.9 km/h 71 % 0.0 mm open2300-1.11 W/m2
11:10 12.4 °C 6.7 °C 1016.5 hPa ESE 16.9 km/h 16.9 km/h 68 % 0.0 mm open2300-1.11 W/m2
12:11 12.9 °C 6.9 °C 1016.8 hPa SE 5.6 km/h 9.8 km/h 67 % 0.0 mm open2300-1.11 W/m2
13:10 12.8 °C 7.1 °C 1016.1 hPa SE 14 km/h 16.9 km/h 68 % 0.0 mm open2300-1.11 W/m2
14:11 12.7 °C 6.9 °C 1015.8 hPa ENE 2.3 km/h 5.6 km/h 68 % 0.0 mm open2300-1.11 W/m2
15:10 12.3 °C 6.6 °C 1015.5 hPa Calm   8 km/h 68 % 0.0 mm open2300-1.11 W/m2
16:11 12.3 °C 6.6 °C 1015.1 hPa Calm   10.9 km/h 68 % 0.0 mm open2300-1.11 W/m2
17:10 12.1 °C 6.3 °C 1015.1 hPa ESE 4.7 km/h 8 km/h 68 % 0.0 mm open2300-1.11 W/m2
18:11 11.9 °C 5.7 °C 1015.1 hPa SE 7.6 km/h 12.7 km/h 66 % 0.0 mm open2300-1.11 W/m2
19:10 11.8 °C 5.2 °C 1015.5 hPa SE 8 km/h 9.8 km/h 64 % 0.0 mm open2300-1.11 W/m2
20:11 11.6 °C 5.0 °C 1014.8 hPa ESE 9.8 km/h 9.8 km/h 64 % 0.0 mm open2300-1.11 W/m2
21:10 11.9 °C 5.1 °C 1015.1 hPa Calm   10.9 km/h 63 % 0.0 mm open2300-1.11 W/m2
22:11 11.6 °C 5.2 °C 1015.1 hPa ESE 28.5 km/h 28.5 km/h 65 % 0.0 mm open2300-1.11 W/m2
23:10 11.5 °C 5.6 °C 1015.1 hPa SSE 1.8 km/h 13.2 km/h 67 % 0.0 mm open2300-1.11 W/m2
Observations météo à CASSIS
WU-History script by Weather Underground - 1 mb